sensor_id;sensor_type;location;lat;lon;timestamp;P1;durP1;ratioP1;P2;durP2;ratioP2
6519;SDS011;3293;51.690;5.982;2022-09-12T00:00:11;15.50;;;13.47;;
6519;SDS011;3293;51.690;5.982;2022-09-12T00:05:11;15.27;;;13.60;;
6519;SDS011;3293;51.690;5.982;2022-09-12T00:10:12;17.33;;;14.43;;
6519;SDS011;3293;51.690;5.982;2022-09-12T00:15:12;14.90;;;13.13;;
6519;SDS011;3293;51.690;5.982;2022-09-12T00:20:12;13.33;;;11.93;;
6519;SDS011;3293;51.690;5.982;2022-09-12T00:25:12;14.43;;;12.03;;
6519;SDS011;3293;51.690;5.982;2022-09-12T00:30:12;13.67;;;12.23;;
6519;SDS011;3293;51.690;5.982;2022-09-12T00:35:12;16.43;;;13.17;;
6519;SDS011;3293;51.690;5.982;2022-09-12T00:40:11;15.23;;;13.30;;
6519;SDS011;3293;51.690;5.982;2022-09-12T00:45:19;17.67;;;14.37;;
6519;SDS011;3293;51.690;5.982;2022-09-12T00:50:26;20.73;;;15.67;;
6519;SDS011;3293;51.690;5.982;2022-09-12T00:55:27;18.53;;;14.90;;
6519;SDS011;3293;51.690;5.982;2022-09-12T01:00:42;17.60;;;14.30;;
6519;SDS011;3293;51.690;5.982;2022-09-12T01:05:43;17.63;;;15.00;;
6519;SDS011;3293;51.690;5.982;2022-09-12T01:10:52;21.67;;;16.43;;
6519;SDS011;3293;51.690;5.982;2022-09-12T01:15:52;20.80;;;16.67;;
6519;SDS011;3293;51.690;5.982;2022-09-12T01:21:05;22.63;;;15.53;;
6519;SDS011;3293;51.690;5.982;2022-09-12T01:32:09;18.33;;;14.57;;
6519;SDS011;3293;51.690;5.982;2022-09-12T01:37:20;21.67;;;14.10;;
6519;SDS011;3293;51.690;5.982;2022-09-12T01:47:39;17.63;;;14.93;;
6519;SDS011;3293;51.690;5.982;2022-09-12T01:52:49;20.80;;;15.93;;
6519;SDS011;3293;51.690;5.982;2022-09-12T01:57:57;19.43;;;16.57;;
6519;SDS011;3293;51.690;5.982;2022-09-12T02:03:13;21.63;;;16.17;;
6519;SDS011;3293;51.690;5.982;2022-09-12T02:08:20;23.10;;;15.83;;
6519;SDS011;3293;51.690;5.982;2022-09-12T02:13:25;21.43;;;16.70;;
6519;SDS011;3293;51.690;5.982;2022-09-12T02:18:28;24.60;;;18.63;;
6519;SDS011;3293;51.690;5.982;2022-09-12T02:23:31;27.43;;;19.00;;
6519;SDS011;3293;51.690;5.982;2022-09-12T02:28:33;23.23;;;18.67;;
6519;SDS011;3293;51.690;5.982;2022-09-12T02:38:54;23.40;;;17.50;;
6519;SDS011;3293;51.690;5.982;2022-09-12T02:43:57;27.40;;;19.23;;
6519;SDS011;3293;51.690;5.982;2022-09-12T02:48:57;27.20;;;20.30;;
6519;SDS011;3293;51.690;5.982;2022-09-12T02:53:57;28.27;;;20.47;;
6519;SDS011;3293;51.690;5.982;2022-09-12T02:59:02;27.47;;;19.83;;
6519;SDS011;3293;51.690;5.982;2022-09-12T03:15:10;35.63;;;24.77;;
6519;SDS011;3293;51.690;5.982;2022-09-12T03:25:46;34.70;;;23.40;;
6519;SDS011;3293;51.690;5.982;2022-09-12T03:30:49;35.80;;;23.10;;
6519;SDS011;3293;51.690;5.982;2022-09-12T03:35:51;33.90;;;23.63;;
6519;SDS011;3293;51.690;5.982;2022-09-12T03:40:52;39.30;;;24.53;;
6519;SDS011;3293;51.690;5.982;2022-09-12T03:45:51;37.70;;;25.60;;
6519;SDS011;3293;51.690;5.982;2022-09-12T03:50:51;40.07;;;25.00;;
6519;SDS011;3293;51.690;5.982;2022-09-12T03:55:51;38.80;;;25.57;;
6519;SDS011;3293;51.690;5.982;2022-09-12T04:00:51;42.33;;;26.67;;
6519;SDS011;3293;51.690;5.982;2022-09-12T04:05:51;39.40;;;27.10;;
6519;SDS011;3293;51.690;5.982;2022-09-12T04:10:51;48.10;;;28.33;;
6519;SDS011;3293;51.690;5.982;2022-09-12T04:15:54;47.67;;;28.60;;
6519;SDS011;3293;51.690;5.982;2022-09-12T04:21:00;53.37;;;30.50;;
6519;SDS011;3293;51.690;5.982;2022-09-12T04:26:06;53.40;;;32.17;;
6519;SDS011;3293;51.690;5.982;2022-09-12T04:31:07;55.63;;;30.37;;
6519;SDS011;3293;51.690;5.982;2022-09-12T04:36:14;57.70;;;32.77;;
6519;SDS011;3293;51.690;5.982;2022-09-12T04:41:17;59.80;;;33.27;;
6519;SDS011;3293;51.690;5.982;2022-09-12T04:46:21;59.07;;;33.20;;
6519;SDS011;3293;51.690;5.982;2022-09-12T04:51:29;62.73;;;35.10;;
6519;SDS011;3293;51.690;5.982;2022-09-12T04:56:32;60.83;;;34.50;;
6519;SDS011;3293;51.690;5.982;2022-09-12T05:01:36;68.17;;;36.07;;
6519;SDS011;3293;51.690;5.982;2022-09-12T05:06:36;63.77;;;32.73;;
6519;SDS011;3293;51.690;5.982;2022-09-12T05:11:38;65.40;;;33.20;;
6519;SDS011;3293;51.690;5.982;2022-09-12T05:16:39;61.30;;;34.07;;
6519;SDS011;3293;51.690;5.982;2022-09-12T05:21:39;72.17;;;37.37;;
6519;SDS011;3293;51.690;5.982;2022-09-12T05:26:39;65.33;;;34.13;;
6519;SDS011;3293;51.690;5.982;2022-09-12T05:31:39;61.23;;;33.50;;
6519;SDS011;3293;51.690;5.982;2022-09-12T05:36:39;70.10;;;36.73;;
6519;SDS011;3293;51.690;5.982;2022-09-12T05:41:39;72.00;;;37.97;;
6519;SDS011;3293;51.690;5.982;2022-09-12T05:46:40;79.87;;;42.27;;
6519;SDS011;3293;51.690;5.982;2022-09-12T05:51:43;88.13;;;44.53;;
6519;SDS011;3293;51.690;5.982;2022-09-12T05:56:44;82.00;;;42.33;;
6519;SDS011;3293;51.690;5.982;2022-09-12T06:01:44;80.77;;;43.57;;
6519;SDS011;3293;51.690;5.982;2022-09-12T06:06:45;90.13;;;44.63;;
6519;SDS011;3293;51.690;5.982;2022-09-12T06:11:45;93.43;;;42.90;;
6519;SDS011;3293;51.690;5.982;2022-09-12T06:16:45;81.13;;;43.10;;
6519;SDS011;3293;51.690;5.982;2022-09-12T06:21:46;78.63;;;43.77;;
6519;SDS011;3293;51.690;5.982;2022-09-12T06:26:48;84.67;;;44.47;;
6519;SDS011;3293;51.690;5.982;2022-09-12T06:31:50;70.97;;;39.60;;
6519;SDS011;3293;51.690;5.982;2022-09-12T06:36:50;93.10;;;43.60;;
6519;SDS011;3293;51.690;5.982;2022-09-12T06:41:50;75.20;;;40.77;;
6519;SDS011;3293;51.690;5.982;2022-09-12T06:46:50;72.83;;;39.63;;
6519;SDS011;3293;51.690;5.982;2022-09-12T06:51:52;70.53;;;39.07;;
6519;SDS011;3293;51.690;5.982;2022-09-12T06:56:52;68.43;;;39.20;;
6519;SDS011;3293;51.690;5.982;2022-09-12T07:01:52;65.73;;;40.90;;
6519;SDS011;3293;51.690;5.982;2022-09-12T07:06:51;70.47;;;39.23;;
6519;SDS011;3293;51.690;5.982;2022-09-12T07:11:51;62.87;;;38.20;;
6519;SDS011;3293;51.690;5.982;2022-09-12T07:16:51;64.97;;;37.20;;
6519;SDS011;3293;51.690;5.982;2022-09-12T07:21:51;75.93;;;42.27;;
6519;SDS011;3293;51.690;5.982;2022-09-12T07:26:51;63.37;;;39.10;;
6519;SDS011;3293;51.690;5.982;2022-09-12T07:31:51;45.70;;;29.90;;
6519;SDS011;3293;51.690;5.982;2022-09-12T07:36:52;32.20;;;25.95;;
6519;SDS011;3293;51.690;5.982;2022-09-12T07:41:52;29.13;;;23.52;;
6519;SDS011;3293;51.690;5.982;2022-09-12T07:46:52;36.28;;;25.95;;
6519;SDS011;3293;51.690;5.982;2022-09-12T07:51:52;32.10;;;24.50;;
6519;SDS011;3293;51.690;5.982;2022-09-12T07:56:52;31.02;;;24.70;;
6519;SDS011;3293;51.690;5.982;2022-09-12T08:01:52;29.17;;;22.85;;
6519;SDS011;3293;51.690;5.982;2022-09-12T08:06:52;31.65;;;24.10;;
6519;SDS011;3293;51.690;5.982;2022-09-12T08:11:52;25.80;;;21.55;;
6519;SDS011;3293;51.690;5.982;2022-09-12T08:16:52;24.02;;;20.65;;
6519;SDS011;3293;51.690;5.982;2022-09-12T08:21:52;27.88;;;20.40;;
6519;SDS011;3293;51.690;5.982;2022-09-12T08:26:52;23.73;;;19.92;;
6519;SDS011;3293;51.690;5.982;2022-09-12T08:31:52;22.45;;;18.98;;
6519;SDS011;3293;51.690;5.982;2022-09-12T08:36:52;22.35;;;18.35;;
6519;SDS011;3293;51.690;5.982;2022-09-12T08:41:57;26.08;;;17.98;;
6519;SDS011;3293;51.690;5.982;2022-09-12T08:47:16;21.45;;;17.38;;
6519;SDS011;3293;51.690;5.982;2022-09-12T08:57:29;21.55;;;18.70;;
6519;SDS011;3293;51.690;5.982;2022-09-12T09:07:52;21.60;;;18.95;;
6519;SDS011;3293;51.690;5.982;2022-09-12T09:18:54;21.45;;;19.15;;
6519;SDS011;3293;51.690;5.982;2022-09-12T09:24:01;21.63;;;18.02;;
6519;SDS011;3293;51.690;5.982;2022-09-12T09:29:18;21.38;;;18.70;;
6519;SDS011;3293;51.690;5.982;2022-09-12T09:34:21;20.05;;;17.55;;
6519;SDS011;3293;51.690;5.982;2022-09-12T09:44:23;18.02;;;16.08;;
6519;SDS011;3293;51.690;5.982;2022-09-12T09:49:28;16.75;;;15.02;;
6519;SDS011;3293;51.690;5.982;2022-09-12T09:54:33;17.25;;;15.00;;
6519;SDS011;3293;51.690;5.982;2022-09-12T09:59:38;22.35;;;16.73;;
6519;SDS011;3293;51.690;5.982;2022-09-12T10:04:38;22.20;;;16.63;;
6519;SDS011;3293;51.690;5.982;2022-09-12T10:09:40;18.33;;;14.73;;
6519;SDS011;3293;51.690;5.982;2022-09-12T10:14:40;17.98;;;15.75;;
6519;SDS011;3293;51.690;5.982;2022-09-12T10:19:40;19.40;;;15.55;;
6519;SDS011;3293;51.690;5.982;2022-09-12T10:24:40;19.30;;;14.85;;
6519;SDS011;3293;51.690;5.982;2022-09-12T10:29:46;18.05;;;15.57;;
6519;SDS011;3293;51.690;5.982;2022-09-12T10:34:51;18.75;;;15.10;;
6519;SDS011;3293;51.690;5.982;2022-09-12T10:39:55;21.33;;;14.27;;
6519;SDS011;3293;51.690;5.982;2022-09-12T10:44:56;16.42;;;14.23;;
6519;SDS011;3293;51.690;5.982;2022-09-12T10:50:15;14.38;;;12.88;;
6519;SDS011;3293;51.690;5.982;2022-09-12T10:55:22;13.82;;;12.10;;
6519;SDS011;3293;51.690;5.982;2022-09-12T11:00:28;15.68;;;11.45;;
6519;SDS011;3293;51.690;5.982;2022-09-12T11:05:37;11.77;;;10.57;;
6519;SDS011;3293;51.690;5.982;2022-09-12T11:42:40;6.78;;;6.10;;
6519;SDS011;3293;51.690;5.982;2022-09-12T11:47:40;8.18;;;5.03;;
6519;SDS011;3293;51.690;5.982;2022-09-12T11:52:44;9.07;;;7.05;;
6519;SDS011;3293;51.690;5.982;2022-09-12T11:57:48;8.18;;;7.38;;
6519;SDS011;3293;51.690;5.982;2022-09-12T12:08:11;7.43;;;6.10;;
6519;SDS011;3293;51.690;5.982;2022-09-12T12:18:26;6.28;;;5.57;;
6519;SDS011;3293;51.690;5.982;2022-09-12T12:23:29;6.50;;;5.28;;
6519;SDS011;3293;51.690;5.982;2022-09-12T12:38:44;4.82;;;3.97;;
6519;SDS011;3293;51.690;5.982;2022-09-12T12:43:46;5.63;;;4.20;;
6519;SDS011;3293;51.690;5.982;2022-09-12T12:48:55;3.97;;;3.38;;
6519;SDS011;3293;51.690;5.982;2022-09-12T12:54:28;4.82;;;4.00;;
6519;SDS011;3293;51.690;5.982;2022-09-12T12:59:30;4.78;;;4.18;;
6519;SDS011;3293;51.690;5.982;2022-09-12T13:04:30;5.95;;;4.38;;
6519;SDS011;3293;51.690;5.982;2022-09-12T13:09:32;3.88;;;3.45;;
6519;SDS011;3293;51.690;5.982;2022-09-12T13:14:51;5.28;;;3.78;;
6519;SDS011;3293;51.690;5.982;2022-09-12T13:20:05;6.07;;;3.95;;
6519;SDS011;3293;51.690;5.982;2022-09-12T13:25:33;5.80;;;3.85;;
6519;SDS011;3293;51.690;5.982;2022-09-12T13:30:35;5.43;;;3.60;;
6519;SDS011;3293;51.690;5.982;2022-09-12T13:47:06;4.38;;;3.33;;
6519;SDS011;3293;51.690;5.982;2022-09-12T13:57:29;4.70;;;4.15;;
6519;SDS011;3293;51.690;5.982;2022-09-12T14:02:34;6.30;;;4.47;;
6519;SDS011;3293;51.690;5.982;2022-09-12T14:07:39;7.25;;;4.20;;
6519;SDS011;3293;51.690;5.982;2022-09-12T14:12:42;5.18;;;4.30;;
6519;SDS011;3293;51.690;5.982;2022-09-12T14:17:48;5.75;;;4.20;;
6519;SDS011;3293;51.690;5.982;2022-09-12T14:22:53;4.28;;;3.83;;
6519;SDS011;3293;51.690;5.982;2022-09-12T14:27:53;6.10;;;4.05;;
6519;SDS011;3293;51.690;5.982;2022-09-12T14:43:28;4.78;;;4.28;;
6519;SDS011;3293;51.690;5.982;2022-09-12T14:48:34;8.95;;;4.60;;
6519;SDS011;3293;51.690;5.982;2022-09-12T14:53:45;5.00;;;4.18;;
6519;SDS011;3293;51.690;5.982;2022-09-12T14:58:47;4.35;;;3.95;;
6519;SDS011;3293;51.690;5.982;2022-09-12T15:03:49;5.30;;;4.22;;
6519;SDS011;3293;51.690;5.982;2022-09-12T15:08:52;4.60;;;4.20;;
6519;SDS011;3293;51.690;5.982;2022-09-12T15:13:53;5.40;;;4.40;;
6519;SDS011;3293;51.690;5.982;2022-09-12T15:18:53;5.15;;;4.65;;
6519;SDS011;3293;51.690;5.982;2022-09-12T15:23:53;7.03;;;4.63;;
6519;SDS011;3293;51.690;5.982;2022-09-12T15:28:53;4.70;;;4.25;;
6519;SDS011;3293;51.690;5.982;2022-09-12T15:33:53;4.60;;;4.18;;
6519;SDS011;3293;51.690;5.982;2022-09-12T15:38:55;5.30;;;4.25;;
6519;SDS011;3293;51.690;5.982;2022-09-12T15:43:55;6.18;;;4.43;;
6519;SDS011;3293;51.690;5.982;2022-09-12T15:48:55;4.63;;;4.22;;
6519;SDS011;3293;51.690;5.982;2022-09-12T15:53:55;4.10;;;3.70;;
6519;SDS011;3293;51.690;5.982;2022-09-12T15:58:55;4.95;;;3.83;;
6519;SDS011;3293;51.690;5.982;2022-09-12T16:03:55;4.43;;;4.03;;
6519;SDS011;3293;51.690;5.982;2022-09-12T16:08:55;6.38;;;3.97;;
6519;SDS011;3293;51.690;5.982;2022-09-12T16:13:55;4.90;;;4.07;;
6519;SDS011;3293;51.690;5.982;2022-09-12T16:18:56;4.47;;;4.03;;
6519;SDS011;3293;51.690;5.982;2022-09-12T16:23:56;5.15;;;3.88;;
6519;SDS011;3293;51.690;5.982;2022-09-12T16:28:57;6.30;;;4.40;;
6519;SDS011;3293;51.690;5.982;2022-09-12T16:33:57;5.22;;;3.88;;
6519;SDS011;3293;51.690;5.982;2022-09-12T16:38:57;5.60;;;3.85;;
6519;SDS011;3293;51.690;5.982;2022-09-12T16:43:57;4.95;;;3.85;;
6519;SDS011;3293;51.690;5.982;2022-09-12T16:48:57;4.43;;;4.03;;
6519;SDS011;3293;51.690;5.982;2022-09-12T16:53:58;4.60;;;4.00;;
6519;SDS011;3293;51.690;5.982;2022-09-12T16:58:58;5.97;;;3.83;;
6519;SDS011;3293;51.690;5.982;2022-09-12T17:03:57;4.38;;;4.03;;
6519;SDS011;3293;51.690;5.982;2022-09-12T17:08:58;4.20;;;3.80;;
6519;SDS011;3293;51.690;5.982;2022-09-12T17:13:59;5.22;;;3.55;;
6519;SDS011;3293;51.690;5.982;2022-09-12T17:19:00;4.28;;;3.88;;
6519;SDS011;3293;51.690;5.982;2022-09-12T17:24:00;4.82;;;3.42;;
6519;SDS011;3293;51.690;5.982;2022-09-12T17:29:00;3.97;;;3.67;;
6519;SDS011;3293;51.690;5.982;2022-09-12T17:34:00;4.15;;;3.83;;
6519;SDS011;3293;51.690;5.982;2022-09-12T17:39:02;4.25;;;3.88;;
6519;SDS011;3293;51.690;5.982;2022-09-12T17:44:02;4.60;;;4.20;;
6519;SDS011;3293;51.690;5.982;2022-09-12T17:49:04;6.65;;;4.00;;
6519;SDS011;3293;51.690;5.982;2022-09-12T17:54:09;6.60;;;4.43;;
6519;SDS011;3293;51.690;5.982;2022-09-12T17:59:15;4.45;;;4.05;;
6519;SDS011;3293;51.690;5.982;2022-09-12T18:04:19;5.90;;;4.30;;
6519;SDS011;3293;51.690;5.982;2022-09-12T18:09:20;4.63;;;3.90;;
6519;SDS011;3293;51.690;5.982;2022-09-12T18:14:23;5.72;;;4.53;;
6519;SDS011;3293;51.690;5.982;2022-09-12T18:19:26;5.68;;;4.90;;
6519;SDS011;3293;51.690;5.982;2022-09-12T18:24:26;7.13;;;4.90;;
6519;SDS011;3293;51.690;5.982;2022-09-12T18:29:26;8.32;;;5.25;;
6519;SDS011;3293;51.690;5.982;2022-09-12T18:34:26;5.68;;;4.95;;
6519;SDS011;3293;51.690;5.982;2022-09-12T18:39:26;6.05;;;5.15;;
6519;SDS011;3293;51.690;5.982;2022-09-12T18:44:26;4.55;;;4.15;;
6519;SDS011;3293;51.690;5.982;2022-09-12T18:49:26;4.78;;;4.38;;
6519;SDS011;3293;51.690;5.982;2022-09-12T18:54:27;5.45;;;4.82;;
6519;SDS011;3293;51.690;5.982;2022-09-12T18:59:27;7.75;;;5.22;;
6519;SDS011;3293;51.690;5.982;2022-09-12T19:04:27;8.80;;;5.20;;
6519;SDS011;3293;51.690;5.982;2022-09-12T19:09:27;7.00;;;5.45;;
6519;SDS011;3293;51.690;5.982;2022-09-12T19:14:27;6.55;;;5.70;;
6519;SDS011;3293;51.690;5.982;2022-09-12T19:19:27;7.50;;;5.60;;
6519;SDS011;3293;51.690;5.982;2022-09-12T19:24:27;6.97;;;6.03;;
6519;SDS011;3293;51.690;5.982;2022-09-12T19:29:27;6.13;;;5.43;;
6519;SDS011;3293;51.690;5.982;2022-09-12T19:34:27;7.95;;;5.80;;
6519;SDS011;3293;51.690;5.982;2022-09-12T19:39:27;7.35;;;6.55;;
6519;SDS011;3293;51.690;5.982;2022-09-12T19:44:27;9.65;;;6.78;;
6519;SDS011;3293;51.690;5.982;2022-09-12T19:49:28;16.48;;;7.85;;
6519;SDS011;3293;51.690;5.982;2022-09-12T19:54:28;10.23;;;9.23;;
6519;SDS011;3293;51.690;5.982;2022-09-12T19:59:28;10.32;;;9.23;;
6519;SDS011;3293;51.690;5.982;2022-09-12T20:04:28;12.18;;;9.00;;
6519;SDS011;3293;51.690;5.982;2022-09-12T20:09:29;8.52;;;7.65;;
6519;SDS011;3293;51.690;5.982;2022-09-12T20:14:29;11.18;;;8.07;;
6519;SDS011;3293;51.690;5.982;2022-09-12T20:19:29;10.90;;;8.75;;
6519;SDS011;3293;51.690;5.982;2022-09-12T20:24:29;9.13;;;8.23;;
6519;SDS011;3293;51.690;5.982;2022-09-12T20:29:29;11.77;;;8.20;;
6519;SDS011;3293;51.690;5.982;2022-09-12T20:34:29;10.07;;;8.10;;
6519;SDS011;3293;51.690;5.982;2022-09-12T20:39:29;12.32;;;10.63;;
6519;SDS011;3293;51.690;5.982;2022-09-12T20:44:29;14.27;;;11.15;;
6519;SDS011;3293;51.690;5.982;2022-09-12T20:49:28;18.73;;;13.57;;
6519;SDS011;3293;51.690;5.982;2022-09-12T20:54:29;19.95;;;14.63;;
6519;SDS011;3293;51.690;5.982;2022-09-12T20:59:29;25.08;;;17.80;;
6519;SDS011;3293;51.690;5.982;2022-09-12T21:04:29;23.00;;;16.48;;
6519;SDS011;3293;51.690;5.982;2022-09-12T21:09:29;18.20;;;14.27;;
6519;SDS011;3293;51.690;5.982;2022-09-12T21:14:29;20.20;;;15.40;;
6519;SDS011;3293;51.690;5.982;2022-09-12T21:19:29;20.80;;;15.53;;
6519;SDS011;3293;51.690;5.982;2022-09-12T21:24:29;16.87;;;14.67;;
6519;SDS011;3293;51.690;5.982;2022-09-12T21:29:29;22.23;;;16.17;;
6519;SDS011;3293;51.690;5.982;2022-09-12T21:34:29;21.63;;;17.07;;
6519;SDS011;3293;51.690;5.982;2022-09-12T21:39:29;21.30;;;16.50;;
6519;SDS011;3293;51.690;5.982;2022-09-12T21:44:29;20.37;;;16.67;;
6519;SDS011;3293;51.690;5.982;2022-09-12T21:49:29;16.97;;;14.07;;
6519;SDS011;3293;51.690;5.982;2022-09-12T21:54:29;18.23;;;13.23;;
6519;SDS011;3293;51.690;5.982;2022-09-12T21:59:28;19.07;;;14.73;;
6519;SDS011;3293;51.690;5.982;2022-09-12T22:04:28;16.47;;;13.50;;
6519;SDS011;3293;51.690;5.982;2022-09-12T22:09:31;16.13;;;13.13;;
6519;SDS011;3293;51.690;5.982;2022-09-12T22:14:32;14.70;;;12.90;;
6519;SDS011;3293;51.690;5.982;2022-09-12T22:19:33;14.80;;;12.53;;
6519;SDS011;3293;51.690;5.982;2022-09-12T22:24:34;18.67;;;14.70;;
6519;SDS011;3293;51.690;5.982;2022-09-12T22:29:34;16.07;;;13.43;;
6519;SDS011;3293;51.690;5.982;2022-09-12T22:34:35;16.70;;;13.33;;
6519;SDS011;3293;51.690;5.982;2022-09-12T22:39:35;15.57;;;13.40;;
6519;SDS011;3293;51.690;5.982;2022-09-12T22:44:35;14.70;;;13.17;;
6519;SDS011;3293;51.690;5.982;2022-09-12T22:49:35;15.37;;;12.33;;
6519;SDS011;3293;51.690;5.982;2022-09-12T22:54:35;14.50;;;12.40;;
6519;SDS011;3293;51.690;5.982;2022-09-12T22:59:35;14.60;;;12.53;;
6519;SDS011;3293;51.690;5.982;2022-09-12T23:04:35;15.97;;;12.97;;
6519;SDS011;3293;51.690;5.982;2022-09-12T23:09:35;13.95;;;12.38;;
6519;SDS011;3293;51.690;5.982;2022-09-12T23:14:35;16.73;;;13.13;;
6519;SDS011;3293;51.690;5.982;2022-09-12T23:19:35;16.63;;;13.67;;
6519;SDS011;3293;51.690;5.982;2022-09-12T23:24:35;15.90;;;13.13;;
6519;SDS011;3293;51.690;5.982;2022-09-12T23:29:36;15.40;;;12.77;;
6519;SDS011;3293;51.690;5.982;2022-09-12T23:34:36;14.73;;;13.03;;
6519;SDS011;3293;51.690;5.982;2022-09-12T23:39:36;13.77;;;12.37;;
6519;SDS011;3293;51.690;5.982;2022-09-12T23:44:36;15.33;;;12.63;;
6519;SDS011;3293;51.690;5.982;2022-09-12T23:49:36;16.47;;;12.87;;
6519;SDS011;3293;51.690;5.982;2022-09-12T23:54:36;15.47;;;13.40;;
6519;SDS011;3293;51.690;5.982;2022-09-12T23:59:36;15.73;;;11.83;;
